Main page
METAR-TAF:

METAR-TAF

Airports :

Beja Airbase

Beja, Portugal

latitude: 38-04-40N, longitude: 007-55-57W, elevation: 193 m

Current weather observation

The report was made 28 minutes ago, at 14:00 UTC
Wind 3 kt from variable directions
Temperature 18°C
Humidity 56%
Pressure 1024 hPa
Visibility 10 km or more
Few clouds at a height of 3500 ft

METAR: LPBJ 021400Z VRB03KT 9999 FEW035 18/09 Q1024

Time: 14:28 (14:28 UTC)

Forecast

The report was made 3 hours and 27 minutes ago, at 11:01 UTC
Forecast valid from 02 at 12 UTC to 03 at 12 UTC
Wind 2 kt from variable directions
Visibility 10 km or more
Few clouds at a height of 4000 ft
Becoming
from 02 at 18 UTC to 02 at 21 UTC
Wind 8 kt from the North/Northwest
Becoming
from 03 at 01 UTC to 03 at 03 UTC
Wind 5 kt from the East/Northeast

TAF: LPBJ 021101Z 0212/0312 VRB02KT 9999 FEW040 BECMG 0218/0221 33008KT BECMG 0301/0303 06005KT

Weather observations and forecasts of more than 4000 airports (METAR and TAF reports).

The available stations are represented by yellow and red dots on the map.

Hover mouse over dot to see the name of the station.

Then click to see weather observations and forecasts.

To change the map : click on the green buttons with a black cross to zoom in, on the green button with a dash to zoom out, or on the green arrows for adjacent maps.


METAR-TAF: